Time;durP1;ratioP1;P1;durP2;ratioP2;P2;SDS_P1;SDS_P2;PMS_P1;PMS_P2;Temp;Humidity;BMP_temperature;BMP_pressure;BME280_temperature;BME280_humidity;BME280_pressure;Samples;Min_cycle;Max_cycle;Signal;HPM_P1;HPM_P2
2024/01/25 00:02:17;;;;;;;0.57;0.57;;;7.60;99.90;;;;;;5056972;28;20217;-94
2024/01/25 00:04:43;;;;;;;7.37;1.63;;;7.60;99.90;;;;;;5056708;28;20570;-93
2024/01/25 00:07:09;;;;;;;5.60;0.80;;;7.60;99.90;;;;;;5038971;28;20232;-94
2024/01/25 00:09:35;;;;;;;0.30;0.30;;;7.60;99.90;;;;;;5090761;28;20178;-94
2024/01/25 00:12:01;;;;;;;1.27;1.17;;;7.50;99.90;;;;;;5072881;28;20217;-93
2024/01/25 00:14:27;;;;;;;0.77;0.77;;;7.60;99.90;;;;;;5074825;28;20244;-93
2024/01/25 00:16:54;;;;;;;0.20;0.20;;;7.50;99.90;;;;;;5059428;28;20220;-93
2024/01/25 00:19:20;;;;;;;12.47;1.23;;;7.50;99.90;;;;;;5059006;28;20209;-94
2024/01/25 00:21:46;;;;;;;3.10;0.83;;;7.50;99.90;;;;;;5040928;28;20586;-95
2024/01/25 00:24:12;;;;;;;17.27;3.13;;;7.60;99.90;;;;;;5056884;28;20249;-93
2024/01/25 00:26:39;;;;;;;0.83;0.83;;;7.60;99.90;;;;;;5056455;28;20240;-93
2024/01/25 00:29:05;;;;;;;1.57;0.87;;;7.40;99.90;;;;;;5055426;28;20225;-94
2024/01/25 00:31:31;;;;;;;1.07;0.93;;;7.50;99.90;;;;;;5056419;28;20201;-94
2024/01/25 00:34:00;;;;;;;0.60;0.60;;;7.50;99.90;;;;;;5057035;28;20182;-93
2024/01/25 00:36:26;;;;;;;2.27;1.87;;;7.40;99.90;;;;;;5060593;28;20200;-94
2024/01/25 00:38:53;;;;;;;1.80;0.97;;;7.60;99.90;;;;;;5043703;28;20224;-95
2024/01/25 00:41:19;;;;;;;2.00;1.80;;;7.60;99.90;;;;;;5075422;28;20211;-94
2024/01/25 00:43:46;;;;;;;8.43;0.67;;;7.50;99.90;;;;;;5056377;28;20213;-96
2024/01/25 00:46:12;;;;;;;0.87;0.47;;;7.60;99.90;;;;;;5056279;28;20221;-93
2024/01/25 00:48:40;;;;;;;0.43;0.40;;;7.50;99.90;;;;;;5073638;28;20181;-94
2024/01/25 00:51:07;;;;;;;0.97;0.97;;;7.50;99.90;;;;;;5057262;28;20223;-93
2024/01/25 00:53:34;;;;;;;1.03;1.03;;;7.60;99.90;;;;;;5060751;28;20213;-95
2024/01/25 00:56:00;;;;;;;0.50;0.50;;;7.60;99.90;;;;;;5077156;28;20240;-94
2024/01/25 00:58:26;;;;;;;4.10;1.33;;;7.70;99.90;;;;;;5059754;28;20201;-95
2024/01/25 01:00:52;;;;;;;7.20;2.73;;;7.60;99.90;;;;;;5077569;28;20177;-94
2024/01/25 01:03:21;;;;;;;0.10;0.10;;;7.60;99.90;;;;;;5077737;28;20193;-93
2024/01/25 01:05:47;;;;;;;2.03;1.73;;;7.60;99.90;;;;;;5076020;28;20226;-93
2024/01/25 01:08:13;;;;;;;3.90;0.50;;;7.70;99.90;;;;;;5059828;28;20220;-94
2024/01/25 01:10:39;;;;;;;0.97;0.97;;;7.60;99.90;;;;;;5059134;28;20292;-95
2024/01/25 01:13:05;;;;;;;0.43;0.43;;;7.60;99.90;;;;;;5043291;28;20661;-95
2024/01/25 01:15:31;;;;;;;18.70;1.27;;;7.60;99.90;;;;;;5060053;28;20178;-96
2024/01/25 01:17:57;;;;;;;10.80;2.27;;;7.60;99.90;;;;;;5043553;28;20224;-93
2024/01/25 01:20:23;;;;;;;22.70;2.47;;;7.60;99.90;;;;;;5042699;28;20209;-94
2024/01/25 01:22:49;;;;;;;2.77;2.33;;;7.50;99.90;;;;;;5042316;28;20232;-94
2024/01/25 01:25:14;;;;;;;0.30;0.30;;;7.40;99.90;;;;;;5041968;28;20209;-95
2024/01/25 01:27:40;;;;;;;4.47;1.10;;;7.40;99.90;;;;;;5057234;28;20259;-95
2024/01/25 01:30:08;;;;;;;0.97;0.93;;;7.40;99.90;;;;;;5076010;28;20282;-94
2024/01/25 01:32:34;;;;;;;1.70;1.60;;;7.40;99.90;;;;;;5043077;28;20248;-94
2024/01/25 01:35:00;;;;;;;3.73;1.73;;;7.30;99.90;;;;;;5042505;28;20249;-94
2024/01/25 01:37:25;;;;;;;3.20;1.37;;;7.40;99.90;;;;;;5059064;28;20213;-94
2024/01/25 01:39:55;;;;;;;1.03;1.03;;;7.30;99.90;;;;;;5058749;28;20181;-95
2024/01/25 01:42:22;;;;;;;2.83;2.60;;;7.30;99.90;;;;;;5059381;28;20177;-94
2024/01/25 01:44:50;;;;;;;0.67;0.67;;;7.20;99.90;;;;;;5075286;28;20224;-94
2024/01/25 01:47:16;;;;;;;1.00;0.73;;;7.30;99.90;;;;;;5058515;28;20232;-94
2024/01/25 01:49:42;;;;;;;0.70;0.70;;;7.30;99.90;;;;;;5058565;28;20209;-94
2024/01/25 01:52:11;;;;;;;9.00;3.27;;;7.30;99.90;;;;;;5059188;28;20213;-94
2024/01/25 01:54:38;;;;;;;2.00;0.87;;;7.20;99.90;;;;;;5077127;28;20173;-94
2024/01/25 01:57:04;;;;;;;2.43;2.23;;;7.20;99.90;;;;;;5040745;28;20214;-95
2024/01/25 01:59:30;;;;;;;11.60;1.67;;;7.10;99.90;;;;;;5058172;28;20225;-95
2024/01/25 02:01:56;;;;;;;0.50;0.50;;;7.20;99.90;;;;;;5058014;28;20205;-95
2024/01/25 02:04:22;;;;;;;0.20;0.20;;;7.10;99.90;;;;;;5058269;28;20668;-95
2024/01/25 02:06:48;;;;;;;3.53;0.80;;;7.00;99.90;;;;;;5041476;27;20197;-95
2024/01/25 02:09:14;;;;;;;3.20;0.70;;;7.20;99.90;;;;;;5058504;28;20683;-93
2024/01/25 02:11:40;;;;;;;1.83;0.43;;;7.10;99.90;;;;;;5058232;28;20209;-94
2024/01/25 02:14:10;;;;;;;3.40;0.93;;;7.10;99.90;;;;;;5058651;28;20227;-96
2024/01/25 02:16:36;;;;;;;0.47;0.47;;;7.00;99.90;;;;;;5076398;28;20217;-94
2024/01/25 02:19:02;;;;;;;12.83;2.73;;;7.00;99.90;;;;;;5058075;28;20246;-94
2024/01/25 02:21:28;;;;;;;1.93;1.10;;;7.00;99.90;;;;;;5042836;28;20268;-94
2024/01/25 02:23:53;;;;;;;2.03;1.00;;;7.00;99.90;;;;;;5057804;28;20648;-94
2024/01/25 02:26:19;;;;;;;10.50;1.90;;;7.00;99.90;;;;;;5074746;28;20237;-94
2024/01/25 02:28:45;;;;;;;4.53;1.00;;;7.00;99.90;;;;;;5057503;28;20217;-94
2024/01/25 02:31:11;;;;;;;1.23;0.77;;;6.90;99.90;;;;;;5058300;28;20209;-95
2024/01/25 02:33:37;;;;;;;3.63;1.63;;;6.90;99.90;;;;;;5076461;28;20184;-94
2024/01/25 02:36:03;;;;;;;7.63;1.27;;;6.90;99.90;;;;;;5042179;28;20185;-94
2024/01/25 02:38:29;;;;;;;1.37;1.37;;;6.90;99.90;;;;;;5058979;28;20205;-95
2024/01/25 02:40:54;;;;;;;0.30;0.30;;;6.90;99.90;;;;;;5042147;28;20549;-94
2024/01/25 02:43:20;;;;;;;3.97;1.57;;;6.90;99.90;;;;;;5058281;28;20620;-95
2024/01/25 02:45:48;;;;;;;7.83;1.90;;;6.90;99.90;;;;;;5059058;28;20296;-96
2024/01/25 02:48:14;;;;;;;13.63;1.37;;;6.80;99.90;;;;;;5059917;28;20231;-94
2024/01/25 02:50:40;;;;;;;1.37;1.23;;;6.90;99.90;;;;;;5042440;28;20199;-96
2024/01/25 02:53:06;;;;;;;4.13;0.40;;;6.80;99.90;;;;;;5075951;28;20683;-96
2024/01/25 02:55:32;;;;;;;4.53;2.10;;;6.80;99.90;;;;;;5058392;28;20174;-95
2024/01/25 02:57:57;;;;;;;2.53;2.33;;;6.80;99.90;;;;;;5058270;28;20674;-95
2024/01/25 03:00:23;;;;;;;15.93;3.37;;;6.90;99.90;;;;;;5058100;28;20174;-95
2024/01/25 03:02:49;;;;;;;6.23;1.97;;;6.80;99.90;;;;;;5041645;28;20172;-96
2024/01/25 03:05:15;;;;;;;1.47;1.40;;;6.70;99.90;;;;;;5042603;28;20566;-95
2024/01/25 03:07:41;;;;;;;1.70;1.27;;;6.70;99.90;;;;;;5041110;28;20216;-94
2024/01/25 03:10:07;;;;;;;1.07;1.07;;;6.80;99.90;;;;;;5057771;28;20177;-95
2024/01/25 03:12:34;;;;;;;0.37;0.37;;;6.70;99.90;;;;;;5058054;28;20181;-95
2024/01/25 03:15:00;;;;;;;1.70;0.53;;;6.80;99.90;;;;;;5057202;28;20177;-95
2024/01/25 03:17:26;;;;;;;18.50;1.63;;;6.70;99.90;;;;;;5058738;28;20188;-96
2024/01/25 03:19:52;;;;;;;2.23;1.27;;;6.70;99.90;;;;;;5058041;28;20185;-95
2024/01/25 03:22:17;;;;;;;0.57;0.57;;;6.70;99.90;;;;;;5041794;28;20756;-95
2024/01/25 03:24:43;;;;;;;1.23;0.73;;;6.80;99.90;;;;;;5058686;28;20185;-95
2024/01/25 03:27:13;;;;;;;1.60;0.73;;;6.70;99.90;;;;;;5041288;28;20255;-95
2024/01/25 03:29:43;;;;;;;1.30;0.90;;;6.80;99.90;;;;;;5059369;28;20695;-94
2024/01/25 03:32:12;;;;;;;2.17;2.07;;;6.80;99.90;;;;;;5058123;28;20169;-94
2024/01/25 03:34:38;;;;;;;22.30;2.07;;;6.70;99.90;;;;;;5057777;28;20195;-95
2024/01/25 03:37:04;;;;;;;0.30;0.30;;;6.70;99.90;;;;;;5058412;28;20177;-95
2024/01/25 03:39:30;;;;;;;1.83;1.47;;;6.60;99.90;;;;;;5058120;28;20219;-95
2024/01/25 03:41:55;;;;;;;5.40;0.60;;;6.60;99.90;;;;;;5058033;28;20590;-95
2024/01/25 03:44:21;;;;;;;1.60;1.50;;;6.70;99.90;;;;;;5058424;28;20177;-95
2024/01/25 03:46:47;;;;;;;3.00;1.43;;;6.70;99.90;;;;;;5041251;28;20254;-95
2024/01/25 03:49:13;;;;;;;11.13;1.37;;;6.60;99.90;;;;;;5058052;28;20178;-95
2024/01/25 03:51:39;;;;;;;18.63;1.67;;;6.50;99.90;;;;;;5058711;28;20253;-95
2024/01/25 03:54:05;;;;;;;2.67;2.43;;;6.60;99.90;;;;;;5041263;28;20228;-95
2024/01/25 03:56:30;;;;;;;11.77;2.57;;;6.50;99.90;;;;;;5041777;28;20190;-96
2024/01/25 03:58:56;;;;;;;0.80;0.80;;;6.50;99.90;;;;;;5058001;28;20165;-95
2024/01/25 04:01:22;;;;;;;2.87;2.67;;;6.50;99.90;;;;;;5057128;28;20198;-95
2024/01/25 04:03:48;;;;;;;4.03;0.90;;;6.50;99.90;;;;;;5058006;28;20178;-94
2024/01/25 04:06:14;;;;;;;1.23;1.03;;;6.60;99.90;;;;;;5057443;28;20220;-95
2024/01/25 04:08:39;;;;;;;1.60;1.50;;;6.50;99.90;;;;;;5041529;28;20189;-96
2024/01/25 04:11:05;;;;;;;0.20;0.20;;;6.50;99.90;;;;;;5040988;28;20173;-95
2024/01/25 04:13:31;;;;;;;0.53;0.53;;;6.50;99.90;;;;;;5041490;28;20184;-96
2024/01/25 04:15:57;;;;;;;2.10;2.00;;;6.60;99.90;;;;;;5058141;28;20272;-95
2024/01/25 04:18:23;;;;;;;3.23;0.87;;;6.50;99.90;;;;;;5057412;28;20249;-96
2024/01/25 04:20:50;;;;;;;3.07;2.00;;;6.50;99.90;;;;;;5057173;28;20177;-95
2024/01/25 04:23:16;;;;;;;1.63;1.53;;;6.60;99.90;;;;;;5074824;28;20173;-94
2024/01/25 04:25:42;;;;;;;1.47;0.83;;;6.50;99.90;;;;;;5063371;28;20641;-94
2024/01/25 04:28:08;;;;;;;1.63;0.73;;;6.50;99.90;;;;;;5067974;28;20192;-96
2024/01/25 04:30:34;;;;;;;0.63;0.53;;;6.50;99.90;;;;;;5065219;28;20540;-96
2024/01/25 04:33:00;;;;;;;1.23;0.90;;;6.30;99.90;;;;;;5062310;28;20188;-96
2024/01/25 04:35:26;;;;;;;1.47;1.23;;;6.40;99.90;;;;;;5061198;28;20546;-95
2024/01/25 04:37:51;;;;;;;0.73;0.73;;;6.20;99.90;;;;;;5045171;28;20183;-95
2024/01/25 04:40:17;;;;;;;2.90;2.73;;;6.20;99.90;;;;;;5062277;28;20587;-96
2024/01/25 04:42:43;;;;;;;0.77;0.77;;;6.30;99.90;;;;;;5061149;28;20679;-95
2024/01/25 04:45:09;;;;;;;4.90;1.60;;;6.20;99.90;;;;;;5083465;28;20196;-95
2024/01/25 04:47:38;;;;;;;3.63;0.70;;;6.20;99.90;;;;;;5084777;28;20197;-95
2024/01/25 04:50:04;;;;;;;3.97;1.80;;;6.30;99.90;;;;;;5066430;28;20177;-94
2024/01/25 04:52:29;;;;;;;1.00;1.00;;;6.10;99.90;;;;;;5063183;28;20177;-96
2024/01/25 04:54:55;;;;;;;3.77;1.67;;;6.30;99.90;;;;;;5062880;28;20185;-96
2024/01/25 04:57:21;;;;;;;13.33;0.67;;;6.30;99.90;;;;;;5062552;28;20173;-95
2024/01/25 04:59:47;;;;;;;4.67;2.33;;;6.30;99.90;;;;;;5061739;28;20622;-96
2024/01/25 05:02:13;;;;;;;0.80;0.80;;;6.40;99.90;;;;;;5044952;28;20605;-95
2024/01/25 05:04:39;;;;;;;1.00;0.97;;;6.30;99.90;;;;;;5044755;28;20219;-95
2024/01/25 05:07:05;;;;;;;0.37;0.37;;;6.20;99.90;;;;;;5061004;28;20240;-96
2024/01/25 05:09:31;;;;;;;1.07;1.07;;;6.30;99.90;;;;;;5060517;28;20272;-96
2024/01/25 05:11:58;;;;;;;7.73;2.10;;;6.40;99.90;;;;;;5079242;28;20169;-96
2024/01/25 05:14:25;;;;;;;7.30;3.03;;;6.20;99.90;;;;;;5060874;28;20182;-95
2024/01/25 05:16:51;;;;;;;0.40;0.40;;;6.20;99.90;;;;;;5077336;28;20177;-96
2024/01/25 05:19:17;;;;;;;8.53;0.40;;;6.30;99.90;;;;;;5078600;28;20223;-96
2024/01/25 05:21:42;;;;;;;1.60;1.33;;;6.10;99.90;;;;;;5044055;28;20555;-95
2024/01/25 05:24:09;;;;;;;4.80;1.13;;;6.10;99.90;;;;;;5043867;28;20181;-96
2024/01/25 05:26:35;;;;;;;8.67;0.70;;;6.20;99.90;;;;;;5043881;28;20240;-96
2024/01/25 05:29:01;;;;;;;3.60;1.23;;;6.00;99.90;;;;;;5076874;28;20193;-95
2024/01/25 05:31:27;;;;;;;0.20;0.20;;;6.10;99.90;;;;;;5060879;28;20178;-95
2024/01/25 05:33:53;;;;;;;0.93;0.93;;;6.00;99.90;;;;;;5060864;28;20193;-96
2024/01/25 05:36:19;;;;;;;7.83;2.33;;;6.00;99.90;;;;;;5060802;28;20178;-95
2024/01/25 05:38:45;;;;;;;2.33;1.63;;;6.00;99.90;;;;;;5060145;28;20182;-96
2024/01/25 05:41:11;;;;;;;0.87;0.80;;;6.10;99.90;;;;;;5043718;28;20235;-95
2024/01/25 05:43:37;;;;;;;0.93;0.87;;;6.10;99.90;;;;;;5043855;28;20188;-95
2024/01/25 05:46:03;;;;;;;4.47;3.30;;;6.00;99.90;;;;;;5061221;28;20208;-96
2024/01/25 05:48:29;;;;;;;0.60;0.60;;;6.10;99.90;;;;;;5060204;28;20182;-96
2024/01/25 05:50:55;;;;;;;3.93;1.13;;;5.80;99.90;;;;;;5060329;28;20165;-96
2024/01/25 05:53:21;;;;;;;3.47;3.20;;;5.90;99.90;;;;;;5077991;28;20503;-96
2024/01/25 05:55:47;;;;;;;22.53;3.47;;;5.90;99.90;;;;;;5059628;28;20211;-95
2024/01/25 05:58:13;;;;;;;0.77;0.77;;;6.00;99.90;;;;;;5059992;28;20169;-96
2024/01/25 06:00:39;;;;;;;2.03;1.93;;;6.10;99.90;;;;;;5060026;28;20181;-96
2024/01/25 06:03:05;;;;;;;6.87;3.17;;;5.90;99.90;;;;;;5060007;28;20265;-96
2024/01/25 06:05:31;;;;;;;4.47;2.83;;;5.90;99.90;;;;;;5043890;28;20209;-96
2024/01/25 06:07:56;;;;;;;5.93;1.20;;;6.00;99.90;;;;;;5059739;28;20187;-95
2024/01/25 06:10:22;;;;;;;2.00;0.70;;;6.10;99.90;;;;;;5059419;28;20676;-96
2024/01/25 06:12:48;;;;;;;1.13;1.03;;;6.00;99.90;;;;;;5043032;28;20185;-95
2024/01/25 06:15:14;;;;;;;0.43;0.43;;;6.00;99.90;;;;;;5060305;28;20185;-96
2024/01/25 06:17:40;;;;;;;6.37;1.40;;;5.90;99.90;;;;;;5077611;28;20181;-96
2024/01/25 06:20:06;;;;;;;7.30;2.97;;;6.20;99.90;;;;;;5060894;28;20181;-96
2024/01/25 06:22:32;;;;;;;0.67;0.67;;;5.90;99.90;;;;;;5060631;28;20239;-96
2024/01/25 06:24:58;;;;;;;5.80;1.97;;;6.20;99.90;;;;;;5061108;28;20509;-96
2024/01/25 06:27:24;;;;;;;0.80;0.80;;;5.90;99.90;;;;;;5042568;28;20315;-96
2024/01/25 06:29:49;;;;;;;1.23;1.13;;;5.90;99.90;;;;;;5059777;28;20193;-96
2024/01/25 06:32:15;;;;;;;3.60;0.70;;;5.90;99.90;;;;;;5060505;28;20185;-96
2024/01/25 06:34:41;;;;;;;1.67;1.57;;;5.80;99.90;;;;;;5078064;28;20162;-96
2024/01/25 06:37:07;;;;;;;1.27;1.17;;;5.80;99.90;;;;;;5060689;28;20699;-96
2024/01/25 06:39:34;;;;;;;1.80;0.73;;;6.00;99.90;;;;;;5063363;28;20230;-96
2024/01/25 06:42:03;;;;;;;1.03;0.93;;;5.90;99.90;;;;;;5062087;28;20220;-96
2024/01/25 06:44:29;;;;;;;10.57;1.27;;;6.00;99.90;;;;;;5044728;28;20316;-96
2024/01/25 06:46:57;;;;;;;8.13;1.40;;;5.90;99.90;;;;;;5044695;28;20232;-96
2024/01/25 06:49:23;;;;;;;4.93;1.43;;;5.90;99.90;;;;;;5061177;28;20656;-96
2024/01/25 06:51:49;;;;;;;2.83;2.43;;;5.90;99.90;;;;;;5061337;28;20609;-96
2024/01/25 06:54:15;;;;;;;3.53;2.20;;;5.70;99.90;;;;;;5060207;28;20185;-96
2024/01/25 06:56:42;;;;;;;1.07;1.07;;;5.70;99.90;;;;;;5066345;28;20243;-96
2024/01/25 06:59:08;;;;;;;2.93;2.77;;;5.90;99.90;;;;;;5060921;28;20663;-96
2024/01/25 07:01:34;;;;;;;2.30;2.13;;;5.70;99.90;;;;;;5060523;28;20189;-96
2024/01/25 07:03:59;;;;;;;8.27;0.67;;;5.70;99.90;;;;;;5060874;28;20192;-96
2024/01/25 07:06:26;;;;;;;1.83;0.70;;;5.70;99.90;;;;;;5059209;28;20534;-96
2024/01/25 07:08:53;;;;;;;7.83;1.30;;;5.90;99.90;;;;;;5057546;28;20272;-96
2024/01/25 07:11:19;;;;;;;2.07;1.97;;;6.00;99.90;;;;;;5057589;28;20177;-96
2024/01/25 07:13:45;;;;;;;4.13;2.07;;;5.90;99.90;;;;;;5057973;28;20211;-95
2024/01/25 07:16:11;;;;;;;0.87;0.87;;;6.20;99.90;;;;;;5057739;28;20536;-95
2024/01/25 07:18:37;;;;;;;5.10;2.57;;;6.00;99.90;;;;;;5057458;28;20610;-96
2024/01/25 07:21:03;;;;;;;7.33;2.03;;;5.90;99.90;;;;;;5057771;28;20181;-96
2024/01/25 07:23:36;;;;;;;0.73;0.73;;;6.10;99.90;;;;;;5060512;28;20173;-96
2024/01/25 07:26:02;;;;;;;2.43;2.23;;;6.00;99.90;;;;;;5060324;28;20189;-96
2024/01/25 07:28:29;;;;;;;2.37;1.50;;;6.10;99.90;;;;;;5059898;28;20181;-96
2024/01/25 07:30:55;;;;;;;2.73;2.53;;;6.10;99.90;;;;;;5041222;28;20181;-96
2024/01/25 07:33:21;;;;;;;1.13;1.13;;;6.00;99.90;;;;;;5041571;28;20181;-96
2024/01/25 07:35:47;;;;;;;11.33;1.77;;;6.20;99.90;;;;;;5058774;28;20177;-96
2024/01/25 07:38:14;;;;;;;2.83;1.90;;;6.10;99.90;;;;;;5057522;28;20630;-95
2024/01/25 07:40:40;;;;;;;2.10;1.97;;;6.20;99.90;;;;;;5058096;28;20188;-96
2024/01/25 07:43:06;;;;;;;3.20;2.57;;;6.20;99.90;;;;;;5041445;28;20184;-94
2024/01/25 07:45:33;;;;;;;2.83;2.43;;;5.90;99.90;;;;;;5057600;28;20598;-96
2024/01/25 07:47:59;;;;;;;1.47;1.37;;;6.00;99.90;;;;;;5058435;28;20225;-96
2024/01/25 07:50:32;;;;;;;12.87;1.50;;;6.10;99.90;;;;;;5058121;28;20225;-96
2024/01/25 07:53:00;;;;;;;1.10;1.10;;;6.10;99.90;;;;;;5042609;28;20302;-96
2024/01/25 07:55:26;;;;;;;9.47;1.70;;;6.20;99.90;;;;;;5040721;28;20209;-96
2024/01/25 07:57:53;;;;;;;1.63;1.53;;;6.10;99.90;;;;;;5041788;28;20185;-96
2024/01/25 08:00:19;;;;;;;2.20;2.07;;;6.20;99.90;;;;;;5043328;28;20282;-96
2024/01/25 08:02:45;;;;;;;6.87;3.07;;;6.40;99.90;;;;;;5061632;28;20245;-95
2024/01/25 08:05:11;;;;;;;6.80;2.43;;;6.40;99.90;;;;;;5055727;28;20255;-96
2024/01/25 08:07:37;;;;;;;3.80;2.20;;;6.50;99.90;;;;;;5074767;28;20220;-95
2024/01/25 08:10:04;;;;;;;4.03;2.17;;;6.40;99.90;;;;;;5073888;28;20238;-94
2024/01/25 08:12:31;;;;;;;3.77;0.93;;;6.70;99.90;;;;;;5041292;28;20654;-95
2024/01/25 08:14:57;;;;;;;2.07;1.37;;;6.60;99.90;;;;;;5045327;28;20217;-96
2024/01/25 08:17:25;;;;;;;2.80;2.33;;;6.60;99.90;;;;;;5057750;28;20695;-96
2024/01/25 08:19:51;;;;;;;1.10;1.10;;;6.50;99.90;;;;;;5074778;28;20209;-96
2024/01/25 08:22:21;;;;;;;7.33;2.23;;;6.40;99.90;;;;;;5057650;28;20278;-96
2024/01/25 08:24:47;;;;;;;1.53;1.33;;;6.50;99.90;;;;;;5050816;28;20617;-93
2024/01/25 08:27:14;;;;;;;8.80;1.63;;;6.60;99.90;;;;;;5058490;28;20236;-95
2024/01/25 08:29:40;;;;;;;10.60;2.33;;;6.60;99.90;;;;;;5074791;28;20282;-96
2024/01/25 08:32:08;;;;;;;4.63;2.20;;;6.80;99.90;;;;;;5041310;28;20669;-96
2024/01/25 08:34:34;;;;;;;9.17;2.47;;;6.60;99.90;;;;;;5056892;28;20261;-96
2024/01/25 08:37:00;;;;;;;9.20;1.17;;;6.60;99.90;;;;;;5076753;28;20204;-96
2024/01/25 08:39:26;;;;;;;1.37;1.37;;;6.70;99.90;;;;;;5044746;28;20245;-96
2024/01/25 08:41:53;;;;;;;1.23;1.23;;;6.70;99.90;;;;;;5044782;28;20256;-96
2024/01/25 08:44:19;;;;;;;8.63;1.70;;;7.00;99.90;;;;;;5057602;28;20221;-95
2024/01/25 08:46:45;;;;;;;16.70;2.00;;;6.90;99.90;;;;;;5056795;28;20698;-96
2024/01/25 08:49:12;;;;;;;8.20;1.47;;;7.10;99.90;;;;;;5055808;28;20205;-94
2024/01/25 08:51:38;;;;;;;0.30;0.30;;;7.10;99.90;;;;;;5041686;28;20182;-91
2024/01/25 08:54:06;;;;;;;4.93;1.00;;;7.30;99.90;;;;;;5055754;28;20225;-94
2024/01/25 08:56:32;;;;;;;2.47;2.27;;;7.30;99.90;;;;;;5039516;28;20297;-95
2024/01/25 08:58:58;;;;;;;3.20;1.03;;;7.30;99.90;;;;;;5039801;28;20249;-94
2024/01/25 09:01:24;;;;;;;2.90;0.77;;;7.20;99.90;;;;;;5054597;28;20234;-95
2024/01/25 09:03:50;;;;;;;10.83;1.77;;;7.30;99.90;;;;;;5056152;28;20177;-95
2024/01/25 09:06:17;;;;;;;4.47;1.70;;;7.40;99.90;;;;;;5039861;28;20211;-95
2024/01/25 09:08:43;;;;;;;1.40;1.30;;;7.50;99.90;;;;;;5046515;28;20220;-96
2024/01/25 09:11:08;;;;;;;12.10;2.90;;;7.70;99.90;;;;;;5040102;28;20711;-96
2024/01/25 09:13:40;;;;;;;1.40;1.40;;;7.60;99.90;;;;;;5059032;28;20220;-95
2024/01/25 09:16:06;;;;;;;0.60;0.57;;;7.60;99.90;;;;;;5058390;28;20362;-95
2024/01/25 09:18:32;;;;;;;6.83;2.37;;;7.60;99.90;;;;;;5060722;28;20173;-95
2024/01/25 09:20:58;;;;;;;10.87;1.87;;;7.60;99.90;;;;;;5043465;28;20213;-95
2024/01/25 09:23:24;;;;;;;3.40;1.50;;;7.80;99.90;;;;;;5043454;28;20308;-95
2024/01/25 09:25:51;;;;;;;5.77;1.10;;;7.90;99.90;;;;;;5041413;28;20220;-94
2024/01/25 09:28:17;;;;;;;7.93;3.67;;;7.80;99.90;;;;;;5052337;27;20223;-93
2024/01/25 09:30:46;;;;;;;8.83;2.70;;;7.70;99.90;;;;;;5044371;28;20231;-95
2024/01/25 09:33:46;;;;;;;3.47;0.97;;;7.60;99.90;;;;;;5043641;28;20208;-95
2024/01/25 09:36:17;;;;;;;6.00;2.77;;;7.40;99.90;;;;;;5059933;28;20212;-95
2024/01/25 09:42:44;;;;;;;7.30;3.27;;;7.50;99.90;;;;;;5077303;28;20165;-96
2024/01/25 09:45:17;;;;;;;6.83;3.50;;;7.60;99.90;;;;;;5043392;28;20218;-95
2024/01/25 09:47:47;;;;;;;18.80;2.73;;;7.70;99.90;;;;;;5059207;28;20225;-95
2024/01/25 09:50:14;;;;;;;3.67;2.47;;;7.70;99.90;;;;;;5043899;28;20597;-95
2024/01/25 09:52:44;;;;;;;10.20;1.77;;;7.80;99.90;;;;;;5091896;28;20206;-94
2024/01/25 09:55:14;;;;;;;8.53;1.57;;;7.90;99.90;;;;;;5059167;28;20627;-96
2024/01/25 09:57:43;;;;;;;17.23;3.30;;;7.80;99.90;;;;;;5076990;28;20180;-95
2024/01/25 10:00:15;;;;;;;1.20;0.87;;;7.80;99.90;;;;;;5096242;27;20233;-96
2024/01/25 10:06:25;;;;;;;6.37;1.63;;;7.80;99.90;;;;;;5076955;28;20278;-95
2024/01/25 10:08:52;;;;;;;5.30;1.83;;;7.80;99.90;;;;;;5042500;28;20221;-94
2024/01/25 10:11:22;;;;;;;11.73;1.90;;;8.10;99.90;;;;;;5059463;28;20225;-95
2024/01/25 10:13:52;;;;;;;8.90;1.43;;;8.10;99.90;;;;;;5058779;28;20640;-95
2024/01/25 10:16:19;;;;;;;2.20;2.10;;;8.20;99.90;;;;;;5058243;28;20221;-94
2024/01/25 10:18:47;;;;;;;2.23;2.07;;;8.30;99.90;;;;;;5042452;28;20174;-94
2024/01/25 10:21:15;;;;;;;1.27;1.27;;;8.70;99.90;;;;;;5042485;28;20169;-95
2024/01/25 10:23:43;;;;;;;8.53;1.37;;;8.90;99.90;;;;;;5058092;28;20221;-95
2024/01/25 10:30:09;;;;;;;16.27;1.87;;;8.90;99.90;;;;;;5076443;28;20300;-95
2024/01/25 10:32:35;;;;;;;10.40;2.83;;;8.90;99.90;;;;;;5042312;28;20292;-95
2024/01/25 10:35:07;;;;;;;10.63;3.00;;;8.90;99.90;;;;;;5033979;28;20245;-95
2024/01/25 10:41:28;;;;;;;5.33;2.73;;;8.90;99.90;;;;;;5076074;28;20231;-94
2024/01/25 10:43:55;;;;;;;8.10;2.53;;;8.90;99.90;;;;;;5041687;28;20209;-96
2024/01/25 10:46:21;;;;;;;1.90;0.97;;;9.10;99.90;;;;;;5074079;28;20234;-95
2024/01/25 10:48:47;;;;;;;6.87;1.67;;;9.10;99.90;;;;;;5058043;28;20197;-93
2024/01/25 10:51:18;;;;;;;6.63;1.73;;;9.00;99.90;;;;;;5058648;28;20165;-95
2024/01/25 10:53:46;;;;;;;1.60;1.50;;;9.10;99.90;;;;;;5042031;28;20304;-95
2024/01/25 10:56:13;;;;;;;3.90;2.00;;;9.20;99.90;;;;;;5057629;28;20294;-96
2024/01/25 10:58:41;;;;;;;1.60;1.50;;;9.30;99.90;;;;;;5057103;28;20300;-95
2024/01/25 11:01:13;;;;;;;3.47;2.83;;;9.30;99.90;;;;;;5056420;28;20224;-84
2024/01/25 11:03:42;;;;;;;3.67;1.33;;;9.60;99.90;;;;;;5038942;28;20292;-85
2024/01/25 11:06:09;;;;;;;2.20;2.07;;;9.40;99.90;;;;;;5072199;28;20225;-85
2024/01/25 11:08:38;;;;;;;1.87;1.77;;;9.30;99.90;;;;;;5055458;28;20232;-85
2024/01/25 11:11:08;;;;;;;8.33;4.17;;;9.50;99.90;;;;;;5054593;28;20225;-86
2024/01/25 11:13:34;;;;;;;2.87;2.57;;;9.70;99.90;;;;;;5054674;28;20667;-83
2024/01/25 11:16:12;;;;;;;1.13;1.03;;;9.70;99.90;;;;;;5072354;28;20270;-85
2024/01/25 11:18:48;;;;;;;12.10;1.83;;;9.60;99.90;;;;;;5055611;28;20176;-85
2024/01/25 11:21:42;;;;;;;3.93;2.10;;;9.60;99.90;;;;;;5054953;28;20278;-85
2024/01/25 11:24:21;;;;;;;3.37;2.17;;;9.80;99.90;;;;;;5054331;28;20221;-85
2024/01/25 11:26:47;;;;;;;9.83;0.80;;;10.00;99.90;;;;;;5072242;28;20240;-85
2024/01/25 11:29:17;;;;;;;1.97;1.77;;;10.00;99.90;;;;;;5054318;28;20225;-85
2024/01/25 11:31:48;;;;;;;2.93;1.93;;;10.00;99.90;;;;;;5054415;28;20271;-84
2024/01/25 11:34:15;;;;;;;7.90;0.97;;;10.00;99.90;;;;;;5054519;28;20240;-85
2024/01/25 11:36:41;;;;;;;4.53;2.87;;;9.90;99.90;;;;;;5037503;28;20516;-85
2024/01/25 11:39:09;;;;;;;10.77;2.87;;;10.00;99.90;;;;;;5054564;28;20212;-84
2024/01/25 11:41:35;;;;;;;10.30;2.73;;;10.00;99.90;;;;;;5072296;28;20726;-84
2024/01/25 11:44:03;;;;;;;8.13;2.20;;;9.90;99.90;;;;;;5054369;28;20229;-86
2024/01/25 11:46:30;;;;;;;4.13;1.60;;;9.80;99.90;;;;;;5054630;28;20233;-86
2024/01/25 11:48:57;;;;;;;3.20;2.30;;;9.70;99.90;;;;;;5054054;28;20188;-86
2024/01/25 11:51:23;;;;;;;2.97;2.17;;;9.80;99.90;;;;;;5072413;28;20181;-87
2024/01/25 11:53:49;;;;;;;3.53;2.20;;;9.60;99.90;;;;;;5054561;28;20299;-88
2024/01/25 11:56:19;;;;;;;2.07;1.50;;;9.60;99.90;;;;;;5037534;28;20335;-88
2024/01/25 11:58:46;;;;;;;3.00;2.00;;;9.50;99.90;;;;;;5054639;28;20205;-87
2024/01/25 12:01:13;;;;;;;6.30;2.43;;;9.60;99.90;;;;;;5054602;28;20263;-87
2024/01/25 12:03:40;;;;;;;7.93;3.57;;;9.80;99.90;;;;;;5054625;28;20259;-86
2024/01/25 12:06:09;;;;;;;2.70;1.80;;;9.90;99.90;;;;;;5037927;28;20228;-88
2024/01/25 12:08:35;;;;;;;9.47;1.40;;;10.00;99.90;;;;;;5054034;28;20625;-85
2024/01/25 12:11:08;;;;;;;1.83;1.70;;;9.60;99.90;;;;;;5037853;28;20217;-87
2024/01/25 12:13:35;;;;;;;1.43;0.73;;;9.40;99.90;;;;;;5037982;28;20628;-87
2024/01/25 12:16:03;;;;;;;27.07;3.17;;;9.40;99.90;;;;;;5038067;28;20204;-86
2024/01/25 12:18:29;;;;;;;18.10;1.30;;;9.50;99.90;;;;;;5072730;28;20276;-87
2024/01/25 12:21:01;;;;;;;2.50;2.30;;;9.50;99.90;;;;;;5054335;28;20237;-88
2024/01/25 12:23:32;;;;;;;5.83;2.07;;;9.50;99.90;;;;;;5054242;28;20244;-87
2024/01/25 12:26:06;;;;;;;4.07;2.03;;;9.50;99.90;;;;;;5054447;28;20566;-88
2024/01/25 12:28:32;;;;;;;5.70;2.17;;;9.50;99.90;;;;;;5071117;28;20232;-88
2024/01/25 12:31:05;;;;;;;25.73;3.13;;;9.50;99.90;;;;;;5053759;28;20192;-87
2024/01/25 12:33:32;;;;;;;0.80;0.80;;;9.50;99.90;;;;;;5071434;28;20170;-87
2024/01/25 12:35:58;;;;;;;14.03;1.70;;;9.60;99.90;;;;;;5054484;28;20244;-88
2024/01/25 12:38:25;;;;;;;9.63;1.07;;;9.60;99.90;;;;;;5054306;28;20209;-88
2024/01/25 12:40:52;;;;;;;2.13;1.93;;;9.70;99.90;;;;;;5053458;28;20216;-85
2024/01/25 12:43:18;;;;;;;3.90;1.03;;;9.70;99.90;;;;;;5053551;28;20212;-86
2024/01/25 12:45:44;;;;;;;7.07;5.47;;;9.70;99.90;;;;;;5053695;28;20178;-87
2024/01/25 12:48:11;;;;;;;14.33;2.53;;;9.80;99.90;;;;;;5090294;28;20231;-87
2024/01/25 12:50:37;;;;;;;3.33;1.20;;;9.70;99.90;;;;;;5074359;28;20232;-88
2024/01/25 12:53:04;;;;;;;1.63;1.53;;;9.60;99.90;;;;;;5074384;28;20218;-87
2024/01/25 12:55:30;;;;;;;4.27;3.10;;;9.50;99.90;;;;;;5057636;28;20213;-86
2024/01/25 12:57:58;;;;;;;0.70;0.70;;;9.20;99.90;;;;;;5041457;28;20191;-87
2024/01/25 13:00:24;;;;;;;1.03;0.80;;;9.40;99.90;;;;;;5074827;28;20232;-88
2024/01/25 13:02:50;;;;;;;6.03;1.17;;;9.60;99.90;;;;;;5073804;28;20233;-86
2024/01/25 13:05:16;;;;;;;2.20;1.90;;;9.70;99.90;;;;;;5091126;28;20217;-87
2024/01/25 13:07:41;;;;;;;0.93;0.93;;;9.90;99.90;;;;;;5057174;28;20232;-86
2024/01/25 13:10:09;;;;;;;8.17;1.90;;;10.00;99.90;;;;;;5074658;28;20213;-86